createdAt,value
2022-12-11T00:55:14.321Z,-1
2022-12-11T01:05:15.256Z,-0.9
2022-12-11T01:15:15.326Z,-0.9
2022-12-11T01:25:15.594Z,-0.9
2022-12-11T01:35:16.098Z,-0.8
2022-12-11T01:45:16.648Z,-0.8
2022-12-11T01:55:17.693Z,-0.7
2022-12-11T02:05:18.239Z,-0.7
2022-12-11T02:25:19.963Z,-0.7
2022-12-11T02:35:20.164Z,-0.6
2022-12-11T02:45:20.892Z,-0.6
2022-12-11T02:55:21.030Z,-0.5
2022-12-11T03:15:22.545Z,-0.5
2022-12-11T03:25:23.324Z,-0.5
2022-12-11T03:35:23.385Z,-0.5
2022-12-11T03:45:23.552Z,-0.5
2022-12-11T03:55:24.438Z,-0.5
2022-12-11T04:05:25.026Z,-0.7
2022-12-11T04:15:25.182Z,-0.6
2022-12-11T04:25:25.564Z,-0.6
2022-12-11T04:35:25.762Z,-0.6
2022-12-11T04:45:26.052Z,-0.6
2022-12-11T04:55:26.956Z,-0.5
2022-12-11T05:05:27.716Z,-0.5
2022-12-11T05:15:28.369Z,-0.5
2022-12-11T05:25:29.187Z,-0.5
2022-12-11T05:35:29.841Z,-0.4
2022-12-11T05:45:30.658Z,-0.4
2022-12-11T05:55:31.312Z,-0.4
2022-12-11T06:05:31.501Z,-0.4
2022-12-11T06:15:32.161Z,-0.3
2022-12-11T06:25:32.772Z,-0.3
2022-12-11T06:35:36.269Z,-0.3
2022-12-11T06:45:33.970Z,-0.3
2022-12-11T06:55:34.246Z,-0.2
2022-12-11T07:15:37.750Z,-0.2
2022-12-11T07:25:35.455Z,-0.2
2022-12-11T07:35:35.995Z,-0.1
2022-12-11T07:45:36.505Z,-0.2
2022-12-11T07:55:36.573Z,-0.1
2022-12-11T08:05:37.266Z,-0.1
2022-12-11T08:15:37.385Z,-0.1
2022-12-11T08:25:37.639Z,0
2022-12-11T08:35:38.360Z,0.1
2022-12-11T08:45:38.930Z,0.1
2022-12-11T08:55:39.348Z,0.1
2022-12-11T09:05:39.807Z,0.2
2022-12-11T09:06:19.480Z,0.2
2022-12-11T09:15:45.993Z,0.2
2022-12-11T09:25:46.727Z,0.2
2022-12-11T09:35:47.382Z,0.3
2022-12-11T09:45:47.853Z,0.3
2022-12-11T09:55:48.116Z,0.3
2022-12-11T10:05:48.978Z,0.4
2022-12-11T10:15:49.774Z,0.3
2022-12-11T10:25:50.692Z,0.4
2022-12-11T10:35:51.348Z,0.4
2022-12-11T10:45:52.127Z,0.4
2022-12-11T10:55:52.825Z,0.3
2022-12-11T11:05:53.192Z,0.4
2022-12-11T11:15:53.605Z,0.5
2022-12-11T11:25:54.492Z,0.4
2022-12-11T11:35:54.687Z,0.4
2022-12-11T11:45:54.971Z,0.4
2022-12-11T11:55:55.612Z,0.5
2022-12-11T12:05:56.487Z,0.4
2022-12-11T12:15:56.801Z,0.4
2022-12-11T12:25:57.530Z,0.4
2022-12-11T12:36:02.119Z,0.4
2022-12-11T12:45:58.677Z,0.4
2022-12-11T12:55:59.112Z,0.4
2022-12-11T13:05:59.936Z,0.4
2022-12-11T13:16:00.246Z,0.5
2022-12-11T13:26:01.205Z,0.6
2022-12-11T13:36:02.112Z,0.6
2022-12-11T13:46:02.615Z,0.6
2022-12-11T13:56:02.961Z,0.5
2022-12-11T14:06:04.045Z,0.5
2022-12-11T14:16:04.529Z,0.5
2022-12-11T14:26:05.220Z,0.5
2022-12-11T14:36:05.996Z,0.5
2022-12-11T14:46:06.600Z,0.5
2022-12-11T14:56:07.312Z,0.5
2022-12-11T15:06:08.066Z,0.5
2022-12-11T15:16:08.559Z,0.5
2022-12-11T15:26:08.757Z,0.4
2022-12-11T15:36:09.252Z,0.4
2022-12-11T15:46:09.934Z,0.4
2022-12-11T16:06:10.635Z,0.3
2022-12-11T16:16:11.024Z,0.4
2022-12-11T16:26:11.745Z,0.4
2022-12-11T16:36:11.801Z,0.4
2022-12-11T16:46:12.509Z,0.4
2022-12-11T16:56:12.585Z,0.5
2022-12-11T17:16:13.675Z,0.5
2022-12-11T17:26:14.550Z,0.4
2022-12-11T17:36:14.950Z,0.4
2022-12-11T17:46:15.027Z,0.4
2022-12-11T17:56:15.578Z,0.3
2022-12-11T18:06:16.277Z,0.3
2022-12-11T18:16:16.659Z,0.4
2022-12-11T18:26:17.043Z,0.4
2022-12-11T18:36:17.739Z,0.4
2022-12-11T18:46:17.964Z,0.5
2022-12-11T18:56:18.667Z,0.5
2022-12-11T19:06:18.985Z,0.5
2022-12-11T19:16:19.735Z,0.5
2022-12-11T19:26:19.871Z,0.5
2022-12-11T19:36:20.408Z,0.5
2022-12-11T19:46:20.723Z,0.5
2022-12-11T19:56:21.005Z,0.5
2022-12-11T20:06:21.979Z,0.5
2022-12-11T20:16:39.432Z,0.5
2022-12-11T20:26:22.770Z,0.5
2022-12-11T20:36:23.731Z,0.3
2022-12-11T20:46:24.674Z,0.3
2022-12-11T20:56:25.186Z,0.3
2022-12-11T21:06:26.096Z,0.3
2022-12-11T21:16:26.947Z,0.3
2022-12-11T21:26:27.760Z,0.2
2022-12-11T21:36:27.991Z,0.2
2022-12-11T22:16:30.656Z,0.1
2022-12-11T23:16:34.615Z,0
2022-12-11T23:26:35.639Z,0
2022-12-11T23:36:36.308Z,0
2022-12-11T23:46:36.557Z,0
2022-12-11T23:56:36.738Z,0
